createdAt,value
2018-04-22T00:01:10.925Z,13.10
2018-04-22T00:06:14.149Z,12.90
2018-04-22T00:11:17.366Z,12.80
2018-04-22T00:16:20.616Z,12.90
2018-04-22T00:21:23.843Z,12.90
2018-04-22T00:26:27.470Z,12.60
2018-04-22T00:31:30.700Z,12.60
2018-04-22T00:36:33.928Z,12.30
2018-04-22T00:41:37.270Z,12.50
2018-04-22T00:46:40.878Z,12.50
2018-04-22T00:51:44.509Z,12.50
2018-04-22T00:56:47.769Z,12.50
2018-04-22T01:01:51.003Z,12.50
2018-04-22T01:06:54.722Z,12.40
2018-04-22T01:11:58.330Z,12.30
2018-04-22T01:17:01.537Z,12.30
2018-04-22T01:22:04.783Z,12.00
2018-04-22T01:27:07.994Z,12.00
2018-04-22T01:32:11.214Z,11.80
2018-04-22T01:37:14.432Z,11.80
2018-04-22T01:42:17.748Z,11.70
2018-04-22T01:47:20.959Z,11.40
2018-04-22T01:52:24.176Z,11.40
2018-04-22T01:57:27.401Z,11.40
2018-04-22T02:02:31.016Z,11.60
2018-04-22T02:07:34.630Z,11.60
2018-04-22T02:12:38.248Z,11.50
2018-04-22T02:17:41.861Z,11.50
2018-04-22T02:22:45.490Z,11.50
2018-04-22T02:27:48.766Z,11.50
2018-04-22T02:32:51.974Z,11.50
2018-04-22T02:37:55.172Z,11.30
2018-04-22T02:42:58.405Z,11.30
2018-04-22T02:48:02.098Z,11.30
2018-04-22T02:53:05.324Z,11.40
2018-04-22T02:58:08.539Z,11.30
2018-04-22T03:03:11.742Z,11.10
2018-04-22T03:08:14.960Z,11.00
2018-04-22T03:13:18.179Z,10.90
2018-04-22T03:18:21.383Z,11.00
2018-04-22T03:23:24.590Z,10.80
2018-04-22T03:28:27.805Z,10.50
2018-04-22T03:33:31.027Z,10.30
2018-04-22T03:38:34.258Z,10.30
2018-04-22T03:43:37.870Z,10.40
2018-04-22T03:48:41.090Z,10.40
2018-04-22T03:53:44.714Z,10.30
2018-04-22T03:58:47.936Z,10.30
2018-04-22T04:03:51.259Z,10.30
2018-04-22T04:08:54.465Z,10.40
2018-04-22T04:13:57.698Z,10.40
2018-04-22T04:19:12.830Z,10.50
2018-04-22T04:24:36.903Z,10.20
2018-04-22T04:29:40.521Z,10.40
2018-04-22T04:34:44.146Z,10.40
2018-04-22T04:39:47.908Z,10.40
2018-04-22T04:44:51.245Z,10.30
2018-04-22T04:49:54.476Z,10.30
2018-04-22T04:54:57.836Z,10.30
2018-04-22T05:00:01.079Z,10.40
2018-04-22T05:05:04.738Z,10.30
2018-04-22T05:10:07.952Z,10.30
2018-04-22T05:15:11.178Z,10.40
2018-04-22T05:20:14.501Z,10.70
2018-04-22T05:25:17.714Z,10.90
2018-04-22T05:30:21.331Z,11.20
2018-04-22T05:35:24.950Z,11.50
2018-04-22T05:40:28.658Z,11.90
2018-04-22T05:45:32.277Z,12.20
2018-04-22T05:50:35.902Z,12.50
2018-04-22T05:55:39.599Z,12.80
2018-04-22T06:00:42.836Z,12.80
2018-04-22T06:05:46.095Z,13.00
2018-04-22T06:10:49.306Z,13.20
2018-04-22T06:15:52.554Z,13.50
2018-04-22T06:20:55.772Z,13.70
2018-04-22T06:25:58.996Z,13.90
2018-04-22T06:31:02.241Z,14.10
2018-04-22T06:36:05.459Z,14.20
2018-04-22T06:41:09.162Z,14.60
2018-04-22T06:46:12.437Z,14.60
2018-04-22T06:51:15.651Z,14.60
2018-04-22T06:56:19.115Z,14.90
2018-04-22T07:01:22.496Z,15.10
2018-04-22T07:06:26.173Z,15.60
2018-04-22T07:11:29.414Z,15.60
2018-04-22T07:16:32.640Z,15.90
2018-04-22T07:21:36.255Z,16.10
2018-04-22T07:26:39.927Z,16.30
2018-04-22T07:31:43.159Z,16.30
2018-04-22T07:36:46.408Z,16.50
2018-04-22T07:41:49.688Z,16.70
2018-04-22T07:46:53.334Z,16.70
2018-04-22T07:51:56.564Z,16.70
2018-04-22T07:56:59.798Z,17.00
2018-04-22T08:02:03.444Z,17.30
2018-04-22T08:07:06.676Z,17.30
2018-04-22T08:12:09.935Z,17.70
2018-04-22T08:17:13.579Z,18.20
2018-04-22T08:22:16.788Z,18.20
2018-04-22T08:27:20.062Z,18.40
2018-04-22T08:32:23.740Z,18.50
2018-04-22T08:37:26.989Z,18.50
2018-04-22T08:42:30.241Z,18.30
2018-04-22T08:47:33.570Z,18.50
2018-04-22T08:52:36.824Z,18.60
2018-04-22T08:57:40.043Z,18.80
2018-04-22T09:02:43.406Z,18.90
2018-04-22T09:07:46.712Z,19.20
2018-04-22T09:12:49.956Z,19.60
2018-04-22T09:17:53.173Z,19.80
2018-04-22T09:22:56.533Z,19.60
2018-04-22T09:27:59.823Z,19.50
2018-04-22T09:33:03.481Z,20.30
2018-04-22T09:38:06.884Z,20.30
2018-04-22T09:43:10.566Z,20.80
2018-04-22T09:48:13.784Z,20.80
2018-04-22T09:53:17.027Z,21.10
2018-04-22T09:58:20.238Z,21.30
2018-04-22T10:03:23.484Z,20.90
2018-04-22T10:08:26.912Z,21.00
2018-04-22T10:13:30.629Z,21.20
2018-04-22T10:18:34.655Z,21.50
2018-04-22T10:23:37.883Z,21.80
2018-04-22T10:28:41.100Z,22.30
2018-04-22T10:33:44.343Z,22.50
2018-04-22T10:38:47.678Z,22.80
2018-04-22T10:43:50.990Z,23.60
2018-04-22T10:48:54.632Z,24.10
2018-04-22T10:53:57.862Z,24.20
2018-04-22T10:59:01.111Z,23.90
2018-04-22T11:04:04.421Z,24.30
2018-04-22T11:09:07.657Z,24.30
2018-04-22T11:14:10.923Z,24.50
2018-04-22T11:19:14.172Z,24.90
2018-04-22T11:24:18.110Z,25.30
2018-04-22T11:29:21.390Z,25.40
2018-04-22T11:34:24.675Z,26.10
2018-04-22T11:39:28.036Z,26.80
2018-04-22T11:44:31.264Z,28.70
2018-04-22T11:49:34.494Z,30.10
2018-04-22T11:54:37.703Z,30.70
2018-04-22T11:59:41.335Z,32.70
2018-04-22T12:04:44.970Z,32.90
2018-04-22T12:09:48.199Z,32.90
2018-04-22T12:14:51.642Z,34.50
2018-04-22T12:19:55.373Z,34.10
2018-04-22T12:24:58.666Z,34.20
2018-04-22T12:30:02.283Z,34.60
2018-04-22T12:35:05.892Z,35.00
2018-04-22T12:40:09.543Z,34.60
2018-04-22T12:45:12.794Z,34.60
2018-04-22T12:50:16.135Z,33.40
2018-04-22T12:55:19.740Z,33.60
2018-04-22T13:00:22.990Z,33.60
2018-04-22T13:05:26.221Z,33.70
2018-04-22T13:10:29.477Z,32.90
2018-04-22T13:15:32.786Z,33.00
2018-04-22T13:20:36.403Z,33.30
2018-04-22T13:25:39.666Z,33.30
2018-04-22T13:30:42.994Z,33.20
2018-04-22T13:35:46.228Z,33.20
2018-04-22T13:40:49.617Z,33.60
2018-04-22T13:45:53.253Z,30.40
2018-04-22T13:50:56.484Z,30.40
2018-04-22T13:55:59.749Z,28.30
2018-04-22T14:01:03.453Z,27.50
2018-04-22T14:06:07.168Z,27.60
2018-04-22T14:11:10.415Z,27.60
2018-04-22T14:16:13.692Z,28.30
2018-04-22T14:21:17.396Z,29.20
2018-04-22T14:26:20.834Z,29.20
2018-04-22T14:31:24.305Z,29.20
2018-04-22T14:36:27.539Z,29.10
2018-04-22T14:41:31.237Z,29.60
2018-04-22T14:46:34.854Z,29.30
2018-04-22T14:51:38.086Z,29.30
2018-04-22T14:56:41.345Z,29.00
2018-04-22T15:01:44.670Z,29.30
2018-04-22T15:06:48.358Z,29.20
2018-04-22T15:11:51.695Z,29.20
2018-04-22T15:16:54.949Z,28.90
2018-04-22T15:21:58.185Z,28.80
2018-04-22T15:27:02.022Z,28.80
2018-04-22T15:32:05.302Z,29.20
2018-04-22T15:37:08.844Z,29.30
2018-04-22T15:42:12.074Z,29.10
2018-04-22T15:47:15.456Z,28.70
2018-04-22T15:52:18.688Z,28.60
2018-04-22T15:57:21.970Z,28.90
2018-04-22T16:02:25.709Z,31.70
2018-04-22T16:07:28.994Z,31.70
2018-04-22T16:12:32.916Z,31.20
2018-04-22T16:17:36.528Z,31.20
2018-04-22T16:22:40.256Z,32.30
2018-04-22T16:27:43.960Z,34.00
2018-04-22T16:32:47.576Z,33.10
2018-04-22T16:37:51.297Z,33.10
2018-04-22T16:42:55.014Z,30.50
2018-04-22T16:47:58.703Z,28.90
2018-04-22T16:53:01.942Z,28.90
2018-04-22T16:58:05.173Z,28.90
2018-04-22T17:03:08.553Z,28.80
2018-04-22T17:08:11.775Z,27.80
2018-04-22T17:13:15.028Z,26.30
2018-04-22T17:18:18.283Z,25.50
2018-04-22T17:23:21.647Z,24.70
2018-04-22T17:28:25.374Z,23.50
2018-04-22T17:33:28.595Z,23.50
2018-04-22T17:38:31.826Z,23.50
2018-04-22T17:43:35.046Z,23.00
2018-04-22T17:48:38.289Z,22.80
2018-04-22T17:53:41.566Z,22.80
2018-04-22T17:58:45.232Z,22.10
2018-04-22T18:03:48.488Z,22.10
2018-04-22T18:08:52.267Z,21.40
2018-04-22T18:13:55.478Z,21.40
2018-04-22T18:18:59.396Z,21.00
2018-04-22T18:24:02.815Z,20.70
2018-04-22T18:29:06.634Z,20.00
2018-04-22T18:34:10.447Z,19.80
2018-04-22T18:39:13.732Z,19.80
2018-04-22T18:44:16.947Z,19.50
2018-04-22T18:49:20.273Z,19.20
2018-04-22T18:54:23.958Z,18.90
2018-04-22T18:59:27.271Z,18.90
2018-04-22T19:04:30.922Z,18.60
2018-04-22T19:09:34.213Z,18.60
2018-04-22T19:14:37.856Z,18.50
2018-04-22T19:19:41.220Z,18.50
2018-04-22T19:24:44.834Z,18.10
2018-04-22T19:29:48.963Z,18.10
2018-04-22T19:34:52.785Z,18.10
2018-04-22T19:39:56.100Z,18.10
2018-04-22T19:44:59.722Z,18.10
2018-04-22T19:50:03.175Z,17.90
2018-04-22T19:55:06.718Z,17.80
2018-04-22T20:00:10.034Z,17.70
2018-04-22T20:05:13.782Z,17.40
2018-04-22T20:10:18.898Z,17.40
2018-04-22T20:15:22.145Z,17.30
2018-04-22T20:20:25.383Z,17.30
2018-04-22T20:25:29.311Z,17.30
2018-04-22T20:30:33.210Z,17.10
2018-04-22T20:35:36.591Z,17.10
2018-04-22T20:40:40.956Z,17.00
2018-04-22T20:45:44.355Z,16.90
2018-04-22T20:50:47.875Z,16.80
2018-04-22T20:55:51.383Z,16.70
2018-04-22T21:00:54.651Z,16.60
2018-04-22T21:05:57.883Z,16.50
2018-04-22T21:11:01.406Z,16.40
2018-04-22T21:16:05.366Z,16.20
2018-04-22T21:21:08.675Z,16.20
2018-04-22T21:26:12.128Z,16.10
2018-04-22T21:31:16.150Z,15.60
2018-04-22T21:36:20.692Z,15.70
2018-04-22T21:41:24.595Z,15.70
2018-04-22T21:46:28.084Z,15.70
2018-04-22T21:51:31.461Z,15.70
2018-04-22T21:56:34.792Z,15.50
2018-04-22T22:01:38.070Z,15.50
2018-04-22T22:06:41.593Z,15.60
2018-04-22T22:11:44.893Z,15.60
2018-04-22T22:16:48.347Z,15.10
2018-04-22T22:21:51.756Z,15.20
2018-04-22T22:26:54.976Z,15.40
2018-04-22T22:31:58.582Z,15.10
2018-04-22T22:37:02.191Z,15.10
2018-04-22T22:42:06.119Z,15.00
2018-04-22T22:47:09.725Z,14.80
2018-04-22T22:52:13.359Z,14.70
2018-04-22T22:57:16.584Z,14.70
2018-04-22T23:02:19.803Z,14.70
2018-04-22T23:07:23.048Z,14.80
2018-04-22T23:12:26.258Z,14.90
2018-04-22T23:17:29.884Z,14.80
2018-04-22T23:22:33.508Z,14.70
2018-04-22T23:27:36.745Z,14.70
2018-04-22T23:32:39.965Z,14.60
2018-04-22T23:37:43.179Z,14.60
2018-04-22T23:42:46.412Z,14.60
2018-04-22T23:47:50.038Z,14.20
2018-04-22T23:52:53.271Z,14.20
2018-04-22T23:57:56.501Z,14.20
